sensor_id;sensor_type;location;lat;lon;timestamp;temperature;humidity
13436;DHT22;6790;49.520;8.504;2023-10-19T00:00:56;11.80;99.90
13436;DHT22;6790;49.520;8.504;2023-10-19T00:03:23;11.80;99.90
13436;DHT22;6790;49.520;8.504;2023-10-19T00:05:50;11.60;99.90
13436;DHT22;6790;49.520;8.504;2023-10-19T00:08:16;11.60;99.90
13436;DHT22;6790;49.520;8.504;2023-10-19T00:10:43;11.80;99.90
13436;DHT22;6790;49.520;8.504;2023-10-19T00:13:14;11.80;99.90
13436;DHT22;6790;49.520;8.504;2023-10-19T00:15:42;11.80;99.90
13436;DHT22;6790;49.520;8.504;2023-10-19T00:18:15;11.50;99.90
13436;DHT22;6790;49.520;8.504;2023-10-19T00:20:46;11.70;99.90
13436;DHT22;6790;49.520;8.504;2023-10-19T00:23:36;11.50;99.90
13436;DHT22;6790;49.520;8.504;2023-10-19T00:26:03;11.50;99.90
13436;DHT22;6790;49.520;8.504;2023-10-19T00:28:40;11.70;99.90
13436;DHT22;6790;49.520;8.504;2023-10-19T00:31:06;11.50;99.90
13436;DHT22;6790;49.520;8.504;2023-10-19T00:33:36;11.70;99.90
13436;DHT22;6790;49.520;8.504;2023-10-19T00:36:08;11.70;99.90
13436;DHT22;6790;49.520;8.504;2023-10-19T00:38:35;11.50;99.90
13436;DHT22;6790;49.520;8.504;2023-10-19T00:41:01;11.60;99.90
13436;DHT22;6790;49.520;8.504;2023-10-19T00:43:45;11.60;99.90
13436;DHT22;6790;49.520;8.504;2023-10-19T00:46:16;11.50;99.90
13436;DHT22;6790;49.520;8.504;2023-10-19T00:48:48;11.80;99.90
13436;DHT22;6790;49.520;8.504;2023-10-19T00:51:18;11.80;99.90
13436;DHT22;6790;49.520;8.504;2023-10-19T00:54:09;11.80;99.90
13436;DHT22;6790;49.520;8.504;2023-10-19T00:56:53;11.80;99.90
13436;DHT22;6790;49.520;8.504;2023-10-19T00:59:21;11.60;99.90
13436;DHT22;6790;49.520;8.504;2023-10-19T01:01:51;11.90;99.90
13436;DHT22;6790;49.520;8.504;2023-10-19T01:04:23;11.60;99.90
13436;DHT22;6790;49.520;8.504;2023-10-19T01:06:50;11.60;99.90
13436;DHT22;6790;49.520;8.504;2023-10-19T01:09:35;11.90;99.90
13436;DHT22;6790;49.520;8.504;2023-10-19T01:12:02;11.90;99.90
13436;DHT22;6790;49.520;8.504;2023-10-19T01:15:10;11.70;99.90
13436;DHT22;6790;49.520;8.504;2023-10-19T01:17:44;11.90;99.90
13436;DHT22;6790;49.520;8.504;2023-10-19T01:20:27;11.60;99.90
13436;DHT22;6790;49.520;8.504;2023-10-19T01:22:57;11.60;99.90
13436;DHT22;6790;49.520;8.504;2023-10-19T01:25:46;11.50;99.90
13436;DHT22;6790;49.520;8.504;2023-10-19T01:28:16;11.60;99.90
13436;DHT22;6790;49.520;8.504;2023-10-19T01:30:45;11.70;99.90
13436;DHT22;6790;49.520;8.504;2023-10-19T01:33:12;11.80;99.90
13436;DHT22;6790;49.520;8.504;2023-10-19T01:35:41;11.80;99.90
13436;DHT22;6790;49.520;8.504;2023-10-19T01:38:27;11.90;99.90
13436;DHT22;6790;49.520;8.504;2023-10-19T01:40:57;11.60;99.90
13436;DHT22;6790;49.520;8.504;2023-10-19T01:43:25;11.80;99.90
13436;DHT22;6790;49.520;8.504;2023-10-19T01:45:56;11.80;99.90
13436;DHT22;6790;49.520;8.504;2023-10-19T01:48:22;11.60;99.90
13436;DHT22;6790;49.520;8.504;2023-10-19T01:50:58;11.80;99.90
13436;DHT22;6790;49.520;8.504;2023-10-19T01:53:35;11.70;99.90
13436;DHT22;6790;49.520;8.504;2023-10-19T01:56:02;11.80;99.90
13436;DHT22;6790;49.520;8.504;2023-10-19T01:58:31;11.80;99.90
13436;DHT22;6790;49.520;8.504;2023-10-19T02:01:02;11.60;99.90
13436;DHT22;6790;49.520;8.504;2023-10-19T02:03:34;11.50;99.90
13436;DHT22;6790;49.520;8.504;2023-10-19T02:06:01;11.80;99.90
13436;DHT22;6790;49.520;8.504;2023-10-19T02:08:55;11.70;99.90
13436;DHT22;6790;49.520;8.504;2023-10-19T02:11:25;11.70;99.90
13436;DHT22;6790;49.520;8.504;2023-10-19T02:13:55;11.50;99.90
13436;DHT22;6790;49.520;8.504;2023-10-19T02:16:25;11.50;99.90
13436;DHT22;6790;49.520;8.504;2023-10-19T02:18:52;11.70;99.90
13436;DHT22;6790;49.520;8.504;2023-10-19T02:21:19;11.60;99.90
13436;DHT22;6790;49.520;8.504;2023-10-19T02:23:50;11.40;99.90
13436;DHT22;6790;49.520;8.504;2023-10-19T02:26:20;11.70;99.90
13436;DHT22;6790;49.520;8.504;2023-10-19T02:28:51;11.70;99.90
13436;DHT22;6790;49.520;8.504;2023-10-19T02:31:18;11.70;99.90
13436;DHT22;6790;49.520;8.504;2023-10-19T02:33:47;11.60;99.90
13436;DHT22;6790;49.520;8.504;2023-10-19T02:36:18;11.40;99.90
13436;DHT22;6790;49.520;8.504;2023-10-19T02:38:45;11.70;99.90
13436;DHT22;6790;49.520;8.504;2023-10-19T02:41:17;11.50;99.90
13436;DHT22;6790;49.520;8.504;2023-10-19T02:43:45;11.60;99.90
13436;DHT22;6790;49.520;8.504;2023-10-19T02:46:43;11.80;99.90
13436;DHT22;6790;49.520;8.504;2023-10-19T02:49:24;11.80;99.90
13436;DHT22;6790;49.520;8.504;2023-10-19T02:51:52;11.90;99.90
13436;DHT22;6790;49.520;8.504;2023-10-19T02:54:22;11.80;99.90
13436;DHT22;6790;49.520;8.504;2023-10-19T02:56:55;11.80;99.90
13436;DHT22;6790;49.520;8.504;2023-10-19T02:59:23;11.70;99.90
13436;DHT22;6790;49.520;8.504;2023-10-19T03:01:55;11.70;99.90
13436;DHT22;6790;49.520;8.504;2023-10-19T03:04:32;11.80;99.90
13436;DHT22;6790;49.520;8.504;2023-10-19T03:07:05;11.70;99.90
13436;DHT22;6790;49.520;8.504;2023-10-19T03:09:32;11.70;99.90
13436;DHT22;6790;49.520;8.504;2023-10-19T03:12:02;11.90;99.90
13436;DHT22;6790;49.520;8.504;2023-10-19T03:14:34;11.70;99.90
13436;DHT22;6790;49.520;8.504;2023-10-19T03:17:00;11.70;99.90
13436;DHT22;6790;49.520;8.504;2023-10-19T03:19:26;11.80;99.90
13436;DHT22;6790;49.520;8.504;2023-10-19T03:21:52;11.90;99.90
13436;DHT22;6790;49.520;8.504;2023-10-19T03:24:20;11.80;99.90
13436;DHT22;6790;49.520;8.504;2023-10-19T03:27:05;11.80;99.90
13436;DHT22;6790;49.520;8.504;2023-10-19T03:29:38;12.00;99.90
13436;DHT22;6790;49.520;8.504;2023-10-19T03:32:05;11.90;99.90
13436;DHT22;6790;49.520;8.504;2023-10-19T03:34:31;11.80;99.90
13436;DHT22;6790;49.520;8.504;2023-10-19T03:36:58;11.70;99.90
13436;DHT22;6790;49.520;8.504;2023-10-19T03:39:32;11.90;99.90
13436;DHT22;6790;49.520;8.504;2023-10-19T03:41:59;11.70;99.90
13436;DHT22;6790;49.520;8.504;2023-10-19T03:44:24;11.90;99.90
13436;DHT22;6790;49.520;8.504;2023-10-19T03:46:51;11.80;99.90
13436;DHT22;6790;49.520;8.504;2023-10-19T03:49:25;11.80;99.90
13436;DHT22;6790;49.520;8.504;2023-10-19T03:51:58;11.80;99.90
13436;DHT22;6790;49.520;8.504;2023-10-19T03:54:26;11.80;99.90
13436;DHT22;6790;49.520;8.504;2023-10-19T03:56:52;11.90;99.90
13436;DHT22;6790;49.520;8.504;2023-10-19T03:59:19;11.90;99.90
13436;DHT22;6790;49.520;8.504;2023-10-19T04:01:48;11.70;99.90
13436;DHT22;6790;49.520;8.504;2023-10-19T04:04:14;11.80;99.90
13436;DHT22;6790;49.520;8.504;2023-10-19T04:06:42;11.80;99.90
13436;DHT22;6790;49.520;8.504;2023-10-19T04:09:14;11.70;99.90
13436;DHT22;6790;49.520;8.504;2023-10-19T04:11:44;11.70;99.90
13436;DHT22;6790;49.520;8.504;2023-10-19T04:14:17;11.80;99.90
13436;DHT22;6790;49.520;8.504;2023-10-19T04:16:43;11.80;99.90
13436;DHT22;6790;49.520;8.504;2023-10-19T04:19:10;12.00;99.90
13436;DHT22;6790;49.520;8.504;2023-10-19T04:21:36;12.00;99.90
13436;DHT22;6790;49.520;8.504;2023-10-19T04:24:06;12.10;99.90
13436;DHT22;6790;49.520;8.504;2023-10-19T04:26:33;11.90;99.90
13436;DHT22;6790;49.520;8.504;2023-10-19T04:29:06;12.00;99.90
13436;DHT22;6790;49.520;8.504;2023-10-19T04:31:42;11.90;99.90
13436;DHT22;6790;49.520;8.504;2023-10-19T04:34:34;12.10;99.90
13436;DHT22;6790;49.520;8.504;2023-10-19T04:37:02;12.10;99.90
13436;DHT22;6790;49.520;8.504;2023-10-19T04:39:28;12.00;99.90
13436;DHT22;6790;49.520;8.504;2023-10-19T04:41:55;12.00;99.90
13436;DHT22;6790;49.520;8.504;2023-10-19T04:44:21;12.20;99.90
13436;DHT22;6790;49.520;8.504;2023-10-19T04:46:48;12.10;99.90
13436;DHT22;6790;49.520;8.504;2023-10-19T04:49:14;12.10;99.90
13436;DHT22;6790;49.520;8.504;2023-10-19T04:51:39;12.10;99.90
13436;DHT22;6790;49.520;8.504;2023-10-19T04:54:06;12.10;99.90
13436;DHT22;6790;49.520;8.504;2023-10-19T04:56:34;12.20;99.90
13436;DHT22;6790;49.520;8.504;2023-10-19T04:59:01;11.90;99.90
13436;DHT22;6790;49.520;8.504;2023-10-19T05:01:28;12.00;99.90
13436;DHT22;6790;49.520;8.504;2023-10-19T05:03:54;11.90;99.90
13436;DHT22;6790;49.520;8.504;2023-10-19T05:06:19;12.00;99.90
13436;DHT22;6790;49.520;8.504;2023-10-19T05:08:47;11.80;99.90
13436;DHT22;6790;49.520;8.504;2023-10-19T05:11:13;11.80;99.90
13436;DHT22;6790;49.520;8.504;2023-10-19T05:13:39;11.80;99.90
13436;DHT22;6790;49.520;8.504;2023-10-19T05:16:05;11.80;99.90
13436;DHT22;6790;49.520;8.504;2023-10-19T05:18:31;11.70;99.90
13436;DHT22;6790;49.520;8.504;2023-10-19T05:20:57;11.50;99.90
13436;DHT22;6790;49.520;8.504;2023-10-19T05:23:23;11.40;99.90
13436;DHT22;6790;49.520;8.504;2023-10-19T05:25:50;11.40;99.90
13436;DHT22;6790;49.520;8.504;2023-10-19T05:28:25;11.40;99.90
13436;DHT22;6790;49.520;8.504;2023-10-19T05:30:51;11.30;99.90
13436;DHT22;6790;49.520;8.504;2023-10-19T05:33:16;11.30;99.90
13436;DHT22;6790;49.520;8.504;2023-10-19T05:35:49;11.20;99.90
13436;DHT22;6790;49.520;8.504;2023-10-19T05:38:15;11.30;99.90
13436;DHT22;6790;49.520;8.504;2023-10-19T05:40:48;11.20;99.90
13436;DHT22;6790;49.520;8.504;2023-10-19T05:43:15;11.40;99.90
13436;DHT22;6790;49.520;8.504;2023-10-19T05:45:41;11.30;99.90
13436;DHT22;6790;49.520;8.504;2023-10-19T05:48:07;11.30;99.90
13436;DHT22;6790;49.520;8.504;2023-10-19T05:50:34;11.50;99.90
13436;DHT22;6790;49.520;8.504;2023-10-19T05:52:59;11.50;99.90
13436;DHT22;6790;49.520;8.504;2023-10-19T05:55:25;11.80;99.90
13436;DHT22;6790;49.520;8.504;2023-10-19T05:57:51;11.60;99.90
13436;DHT22;6790;49.520;8.504;2023-10-19T06:00:17;11.50;99.90
13436;DHT22;6790;49.520;8.504;2023-10-19T06:02:48;11.60;99.90
13436;DHT22;6790;49.520;8.504;2023-10-19T06:05:17;11.50;99.90
13436;DHT22;6790;49.520;8.504;2023-10-19T06:07:53;11.60;99.90
13436;DHT22;6790;49.520;8.504;2023-10-19T06:10:20;11.80;99.90
13436;DHT22;6790;49.520;8.504;2023-10-19T06:12:49;11.90;99.90
13436;DHT22;6790;49.520;8.504;2023-10-19T06:15:16;11.80;99.90
13436;DHT22;6790;49.520;8.504;2023-10-19T06:17:44;11.90;99.90
13436;DHT22;6790;49.520;8.504;2023-10-19T06:20:11;12.10;99.90
13436;DHT22;6790;49.520;8.504;2023-10-19T06:22:53;11.90;99.90
13436;DHT22;6790;49.520;8.504;2023-10-19T06:25:30;12.00;99.90
13436;DHT22;6790;49.520;8.504;2023-10-19T06:27:57;12.00;99.90
13436;DHT22;6790;49.520;8.504;2023-10-19T06:30:23;12.20;99.90
13436;DHT22;6790;49.520;8.504;2023-10-19T06:32:52;12.10;99.90
13436;DHT22;6790;49.520;8.504;2023-10-19T06:35:23;12.40;99.90
13436;DHT22;6790;49.520;8.504;2023-10-19T06:37:49;12.30;99.90
13436;DHT22;6790;49.520;8.504;2023-10-19T06:40:16;12.50;99.90
13436;DHT22;6790;49.520;8.504;2023-10-19T06:42:46;12.40;99.90
13436;DHT22;6790;49.520;8.504;2023-10-19T06:45:16;12.50;99.90
13436;DHT22;6790;49.520;8.504;2023-10-19T06:47:45;12.60;99.90
13436;DHT22;6790;49.520;8.504;2023-10-19T06:50:13;12.60;99.90
13436;DHT22;6790;49.520;8.504;2023-10-19T06:52:44;12.70;99.90
13436;DHT22;6790;49.520;8.504;2023-10-19T06:55:10;12.50;99.90
13436;DHT22;6790;49.520;8.504;2023-10-19T06:57:43;12.70;99.90
13436;DHT22;6790;49.520;8.504;2023-10-19T07:00:14;12.70;99.90
13436;DHT22;6790;49.520;8.504;2023-10-19T07:02:48;12.70;99.90
13436;DHT22;6790;49.520;8.504;2023-10-19T07:05:17;12.80;99.90
13436;DHT22;6790;49.520;8.504;2023-10-19T07:07:46;12.80;99.90
13436;DHT22;6790;49.520;8.504;2023-10-19T07:10:13;12.90;99.90
13436;DHT22;6790;49.520;8.504;2023-10-19T07:12:41;12.90;99.90
13436;DHT22;6790;49.520;8.504;2023-10-19T07:15:08;13.00;99.90
13436;DHT22;6790;49.520;8.504;2023-10-19T07:17:39;13.10;99.90
13436;DHT22;6790;49.520;8.504;2023-10-19T07:20:06;13.30;99.90
13436;DHT22;6790;49.520;8.504;2023-10-19T07:22:34;13.20;99.90
13436;DHT22;6790;49.520;8.504;2023-10-19T07:25:05;13.30;99.90
13436;DHT22;6790;49.520;8.504;2023-10-19T07:27:32;13.20;99.90
13436;DHT22;6790;49.520;8.504;2023-10-19T07:29:59;13.20;99.90
13436;DHT22;6790;49.520;8.504;2023-10-19T07:32:26;13.20;99.90
13436;DHT22;6790;49.520;8.504;2023-10-19T07:34:53;13.20;99.90
13436;DHT22;6790;49.520;8.504;2023-10-19T07:37:20;13.40;99.90
13436;DHT22;6790;49.520;8.504;2023-10-19T07:39:47;13.30;99.90
13436;DHT22;6790;49.520;8.504;2023-10-19T07:42:14;13.40;99.90
13436;DHT22;6790;49.520;8.504;2023-10-19T07:44:40;13.40;99.90
13436;DHT22;6790;49.520;8.504;2023-10-19T07:47:06;13.40;99.90
13436;DHT22;6790;49.520;8.504;2023-10-19T07:49:35;13.50;99.90
13436;DHT22;6790;49.520;8.504;2023-10-19T07:52:04;13.60;99.90
13436;DHT22;6790;49.520;8.504;2023-10-19T07:54:33;13.50;99.90
13436;DHT22;6790;49.520;8.504;2023-10-19T07:56:59;13.60;99.90
13436;DHT22;6790;49.520;8.504;2023-10-19T07:59:29;13.70;99.90
13436;DHT22;6790;49.520;8.504;2023-10-19T08:01:54;13.50;99.90
13436;DHT22;6790;49.520;8.504;2023-10-19T08:04:20;13.70;99.90
13436;DHT22;6790;49.520;8.504;2023-10-19T08:06:46;13.70;99.90
13436;DHT22;6790;49.520;8.504;2023-10-19T08:09:12;13.60;99.90
13436;DHT22;6790;49.520;8.504;2023-10-19T08:11:38;13.80;99.90
13436;DHT22;6790;49.520;8.504;2023-10-19T08:14:04;13.90;99.90
13436;DHT22;6790;49.520;8.504;2023-10-19T08:16:30;14.10;99.90
13436;DHT22;6790;49.520;8.504;2023-10-19T08:18:57;14.20;99.90
13436;DHT22;6790;49.520;8.504;2023-10-19T08:21:23;14.20;99.90
13436;DHT22;6790;49.520;8.504;2023-10-19T08:23:49;14.40;99.90
13436;DHT22;6790;49.520;8.504;2023-10-19T08:26:14;14.70;99.90
13436;DHT22;6790;49.520;8.504;2023-10-19T08:28:40;15.10;99.90
13436;DHT22;6790;49.520;8.504;2023-10-19T08:31:08;15.30;99.90
13436;DHT22;6790;49.520;8.504;2023-10-19T08:33:35;15.40;99.90
13436;DHT22;6790;49.520;8.504;2023-10-19T08:36:04;15.60;99.90
13436;DHT22;6790;49.520;8.504;2023-10-19T08:38:30;15.60;99.90
13436;DHT22;6790;49.520;8.504;2023-10-19T08:40:56;15.80;99.90
13436;DHT22;6790;49.520;8.504;2023-10-19T08:43:23;15.80;99.90
13436;DHT22;6790;49.520;8.504;2023-10-19T08:45:49;15.80;99.90
13436;DHT22;6790;49.520;8.504;2023-10-19T08:48:15;15.80;99.90
13436;DHT22;6790;49.520;8.504;2023-10-19T08:50:41;15.80;99.90
13436;DHT22;6790;49.520;8.504;2023-10-19T08:53:08;15.90;99.90
13436;DHT22;6790;49.520;8.504;2023-10-19T08:55:34;15.90;99.90
13436;DHT22;6790;49.520;8.504;2023-10-19T08:58:00;16.00;99.90
13436;DHT22;6790;49.520;8.504;2023-10-19T09:00:27;15.80;99.90
13436;DHT22;6790;49.520;8.504;2023-10-19T09:02:53;15.80;99.90
13436;DHT22;6790;49.520;8.504;2023-10-19T09:05:20;15.90;99.90
13436;DHT22;6790;49.520;8.504;2023-10-19T09:07:50;16.10;99.90
13436;DHT22;6790;49.520;8.504;2023-10-19T09:10:27;16.10;99.90
13436;DHT22;6790;49.520;8.504;2023-10-19T09:13:03;16.20;99.90
13436;DHT22;6790;49.520;8.504;2023-10-19T09:15:33;16.30;99.90
13436;DHT22;6790;49.520;8.504;2023-10-19T09:18:12;16.30;99.90
13436;DHT22;6790;49.520;8.504;2023-10-19T09:20:42;16.40;99.90
13436;DHT22;6790;49.520;8.504;2023-10-19T09:23:21;16.40;99.90
13436;DHT22;6790;49.520;8.504;2023-10-19T09:25:51;16.60;99.90
13436;DHT22;6790;49.520;8.504;2023-10-19T09:28:20;16.90;99.90
13436;DHT22;6790;49.520;8.504;2023-10-19T09:30:48;16.90;99.90
13436;DHT22;6790;49.520;8.504;2023-10-19T09:33:15;17.00;99.90
13436;DHT22;6790;49.520;8.504;2023-10-19T09:35:49;16.80;99.90
13436;DHT22;6790;49.520;8.504;2023-10-19T09:38:18;16.80;99.90
13436;DHT22;6790;49.520;8.504;2023-10-19T09:40:51;16.90;99.90
13436;DHT22;6790;49.520;8.504;2023-10-19T09:43:30;17.00;99.90
13436;DHT22;6790;49.520;8.504;2023-10-19T09:46:01;17.10;99.90
13436;DHT22;6790;49.520;8.504;2023-10-19T09:48:42;17.30;99.90
13436;DHT22;6790;49.520;8.504;2023-10-19T09:51:12;17.60;99.90
13436;DHT22;6790;49.520;8.504;2023-10-19T09:53:39;17.60;99.90
13436;DHT22;6790;49.520;8.504;2023-10-19T09:56:06;17.70;99.90
13436;DHT22;6790;49.520;8.504;2023-10-19T09:58:44;17.60;99.90
13436;DHT22;6790;49.520;8.504;2023-10-19T10:01:12;17.50;99.90
13436;DHT22;6790;49.520;8.504;2023-10-19T10:03:50;17.50;99.90
13436;DHT22;6790;49.520;8.504;2023-10-19T10:06:30;17.50;99.90
13436;DHT22;6790;49.520;8.504;2023-10-19T10:09:05;17.70;99.90
13436;DHT22;6790;49.520;8.504;2023-10-19T10:11:37;17.60;99.90
13436;DHT22;6790;49.520;8.504;2023-10-19T10:14:23;17.60;99.90
13436;DHT22;6790;49.520;8.504;2023-10-19T10:17:00;17.70;99.90
13436;DHT22;6790;49.520;8.504;2023-10-19T10:19:27;17.60;99.90
13436;DHT22;6790;49.520;8.504;2023-10-19T10:22:09;17.70;99.90
13436;DHT22;6790;49.520;8.504;2023-10-19T10:24:41;17.90;99.90
13436;DHT22;6790;49.520;8.504;2023-10-19T10:27:07;17.80;99.90
13436;DHT22;6790;49.520;8.504;2023-10-19T10:29:33;17.80;99.90
13436;DHT22;6790;49.520;8.504;2023-10-19T10:31:59;17.80;99.90
13436;DHT22;6790;49.520;8.504;2023-10-19T10:37:07;17.60;99.90
13436;DHT22;6790;49.520;8.504;2023-10-19T10:39:34;17.60;99.90
13436;DHT22;6790;49.520;8.504;2023-10-19T10:42:07;17.50;99.90
13436;DHT22;6790;49.520;8.504;2023-10-19T10:44:48;17.50;99.90
13436;DHT22;6790;49.520;8.504;2023-10-19T10:47:19;17.40;99.90
13436;DHT22;6790;49.520;8.504;2023-10-19T10:49:56;17.40;99.90
13436;DHT22;6790;49.520;8.504;2023-10-19T10:52:33;17.40;99.90
13436;DHT22;6790;49.520;8.504;2023-10-19T10:55:11;17.40;99.90
13436;DHT22;6790;49.520;8.504;2023-10-19T10:57:42;17.40;99.90
13436;DHT22;6790;49.520;8.504;2023-10-19T11:00:13;17.20;99.90
13436;DHT22;6790;49.520;8.504;2023-10-19T11:02:45;17.20;99.90
13436;DHT22;6790;49.520;8.504;2023-10-19T11:05:14;17.10;99.90
13436;DHT22;6790;49.520;8.504;2023-10-19T11:07:41;17.00;99.90
13436;DHT22;6790;49.520;8.504;2023-10-19T11:10:30;17.00;99.90
13436;DHT22;6790;49.520;8.504;2023-10-19T11:13:11;17.00;99.90
13436;DHT22;6790;49.520;8.504;2023-10-19T11:15:47;17.00;99.90
13436;DHT22;6790;49.520;8.504;2023-10-19T11:20:58;17.00;99.90
13436;DHT22;6790;49.520;8.504;2023-10-19T11:23:45;16.90;99.90
13436;DHT22;6790;49.520;8.504;2023-10-19T11:26:14;16.90;99.90
13436;DHT22;6790;49.520;8.504;2023-10-19T11:28:41;16.90;99.90
13436;DHT22;6790;49.520;8.504;2023-10-19T11:31:20;16.80;99.90
13436;DHT22;6790;49.520;8.504;2023-10-19T11:33:54;16.80;99.90
13436;DHT22;6790;49.520;8.504;2023-10-19T11:36:26;16.80;99.90
13436;DHT22;6790;49.520;8.504;2023-10-19T11:38:52;16.80;99.90
13436;DHT22;6790;49.520;8.504;2023-10-19T11:41:19;16.80;99.90
13436;DHT22;6790;49.520;8.504;2023-10-19T11:43:47;16.80;99.90
13436;DHT22;6790;49.520;8.504;2023-10-19T11:46:14;16.80;99.90
13436;DHT22;6790;49.520;8.504;2023-10-19T11:48:40;16.80;99.90
13436;DHT22;6790;49.520;8.504;2023-10-19T11:51:08;16.80;99.90
13436;DHT22;6790;49.520;8.504;2023-10-19T11:53:37;16.80;99.90
13436;DHT22;6790;49.520;8.504;2023-10-19T11:56:05;16.70;99.90
13436;DHT22;6790;49.520;8.504;2023-10-19T11:58:32;16.70;99.90
13436;DHT22;6790;49.520;8.504;2023-10-19T12:01:01;16.70;99.90
13436;DHT22;6790;49.520;8.504;2023-10-19T12:03:29;16.70;99.90
13436;DHT22;6790;49.520;8.504;2023-10-19T12:05:55;16.60;99.90
13436;DHT22;6790;49.520;8.504;2023-10-19T12:08:21;16.60;99.90
13436;DHT22;6790;49.520;8.504;2023-10-19T12:10:48;16.60;99.90
13436;DHT22;6790;49.520;8.504;2023-10-19T12:13:15;16.60;99.90
13436;DHT22;6790;49.520;8.504;2023-10-19T12:15:42;16.60;99.90
13436;DHT22;6790;49.520;8.504;2023-10-19T12:18:17;16.60;99.90
13436;DHT22;6790;49.520;8.504;2023-10-19T12:20:46;16.70;99.90
13436;DHT22;6790;49.520;8.504;2023-10-19T12:23:13;16.60;99.90
13436;DHT22;6790;49.520;8.504;2023-10-19T12:25:40;16.70;99.90
13436;DHT22;6790;49.520;8.504;2023-10-19T12:28:07;16.70;99.90
13436;DHT22;6790;49.520;8.504;2023-10-19T12:30:33;16.70;99.90
13436;DHT22;6790;49.520;8.504;2023-10-19T12:33:04;16.70;99.90
13436;DHT22;6790;49.520;8.504;2023-10-19T12:35:37;16.60;99.90
13436;DHT22;6790;49.520;8.504;2023-10-19T12:38:17;16.60;99.90
13436;DHT22;6790;49.520;8.504;2023-10-19T12:40:47;16.40;99.90
13436;DHT22;6790;49.520;8.504;2023-10-19T12:43:17;16.40;99.90
13436;DHT22;6790;49.520;8.504;2023-10-19T12:45:48;16.40;99.90
13436;DHT22;6790;49.520;8.504;2023-10-19T12:48:19;16.30;99.90
13436;DHT22;6790;49.520;8.504;2023-10-19T12:50:46;16.10;99.90
13436;DHT22;6790;49.520;8.504;2023-10-19T12:53:12;16.10;99.90
13436;DHT22;6790;49.520;8.504;2023-10-19T12:55:39;16.00;99.90
13436;DHT22;6790;49.520;8.504;2023-10-19T12:58:08;16.10;99.90
13436;DHT22;6790;49.520;8.504;2023-10-19T13:00:35;16.10;99.90
13436;DHT22;6790;49.520;8.504;2023-10-19T13:03:05;16.10;99.90
13436;DHT22;6790;49.520;8.504;2023-10-19T13:05:37;16.10;99.90
13436;DHT22;6790;49.520;8.504;2023-10-19T13:08:11;16.10;99.90
13436;DHT22;6790;49.520;8.504;2023-10-19T13:10:42;16.10;99.90
13436;DHT22;6790;49.520;8.504;2023-10-19T13:13:13;16.10;99.90
13436;DHT22;6790;49.520;8.504;2023-10-19T13:15:45;16.00;99.90
13436;DHT22;6790;49.520;8.504;2023-10-19T13:18:12;16.10;99.90
13436;DHT22;6790;49.520;8.504;2023-10-19T13:20:39;16.10;99.90
13436;DHT22;6790;49.520;8.504;2023-10-19T13:23:09;16.20;99.90
13436;DHT22;6790;49.520;8.504;2023-10-19T13:25:41;16.10;99.90
13436;DHT22;6790;49.520;8.504;2023-10-19T13:28:11;16.10;99.90
13436;DHT22;6790;49.520;8.504;2023-10-19T13:30:48;16.20;99.90
13436;DHT22;6790;49.520;8.504;2023-10-19T13:33:16;16.20;99.90
13436;DHT22;6790;49.520;8.504;2023-10-19T13:35:46;16.30;99.90
13436;DHT22;6790;49.520;8.504;2023-10-19T13:38:14;16.20;99.90
13436;DHT22;6790;49.520;8.504;2023-10-19T13:40:42;16.20;99.90
13436;DHT22;6790;49.520;8.504;2023-10-19T13:43:09;16.20;99.90
13436;DHT22;6790;49.520;8.504;2023-10-19T13:45:40;16.30;99.90
13436;DHT22;6790;49.520;8.504;2023-10-19T13:48:07;16.30;99.90
13436;DHT22;6790;49.520;8.504;2023-10-19T13:50:34;16.10;99.90
13436;DHT22;6790;49.520;8.504;2023-10-19T13:53:01;16.10;99.90
13436;DHT22;6790;49.520;8.504;2023-10-19T13:55:30;16.10;99.90
13436;DHT22;6790;49.520;8.504;2023-10-19T13:57:56;16.20;99.90
13436;DHT22;6790;49.520;8.504;2023-10-19T14:00:23;16.10;99.90
13436;DHT22;6790;49.520;8.504;2023-10-19T14:02:53;16.10;99.90
13436;DHT22;6790;49.520;8.504;2023-10-19T14:05:19;16.20;99.90
13436;DHT22;6790;49.520;8.504;2023-10-19T14:07:46;16.10;99.90
13436;DHT22;6790;49.520;8.504;2023-10-19T14:10:13;16.10;99.90
13436;DHT22;6790;49.520;8.504;2023-10-19T14:12:39;16.10;99.90
13436;DHT22;6790;49.520;8.504;2023-10-19T14:15:15;16.10;99.90
13436;DHT22;6790;49.520;8.504;2023-10-19T14:17:43;16.10;99.90
13436;DHT22;6790;49.520;8.504;2023-10-19T14:20:10;16.10;99.90
13436;DHT22;6790;49.520;8.504;2023-10-19T14:22:43;16.10;99.90
13436;DHT22;6790;49.520;8.504;2023-10-19T14:25:12;16.20;99.90
13436;DHT22;6790;49.520;8.504;2023-10-19T14:27:43;16.20;99.90
13436;DHT22;6790;49.520;8.504;2023-10-19T14:30:14;16.10;99.90
13436;DHT22;6790;49.520;8.504;2023-10-19T14:32:43;16.10;99.90
13436;DHT22;6790;49.520;8.504;2023-10-19T14:35:11;16.10;99.90
13436;DHT22;6790;49.520;8.504;2023-10-19T14:37:39;16.10;99.90
13436;DHT22;6790;49.520;8.504;2023-10-19T14:40:10;16.10;99.90
13436;DHT22;6790;49.520;8.504;2023-10-19T14:42:43;15.90;99.90
13436;DHT22;6790;49.520;8.504;2023-10-19T14:45:11;16.00;99.90
13436;DHT22;6790;49.520;8.504;2023-10-19T14:47:42;16.00;99.90
13436;DHT22;6790;49.520;8.504;2023-10-19T14:50:12;16.00;99.90
13436;DHT22;6790;49.520;8.504;2023-10-19T14:52:42;16.00;99.90
13436;DHT22;6790;49.520;8.504;2023-10-19T14:55:09;16.10;99.90
13436;DHT22;6790;49.520;8.504;2023-10-19T14:57:36;16.00;99.90
13436;DHT22;6790;49.520;8.504;2023-10-19T15:00:07;16.00;99.90
13436;DHT22;6790;49.520;8.504;2023-10-19T15:02:54;16.00;99.90
13436;DHT22;6790;49.520;8.504;2023-10-19T15:05:24;15.90;99.90
13436;DHT22;6790;49.520;8.504;2023-10-19T15:07:54;16.10;99.90
13436;DHT22;6790;49.520;8.504;2023-10-19T15:10:27;16.10;99.90
13436;DHT22;6790;49.520;8.504;2023-10-19T15:12:54;16.10;99.90
13436;DHT22;6790;49.520;8.504;2023-10-19T15:15:25;16.20;99.90
13436;DHT22;6790;49.520;8.504;2023-10-19T15:17:51;16.20;99.90
13436;DHT22;6790;49.520;8.504;2023-10-19T15:20:25;16.40;99.90
13436;DHT22;6790;49.520;8.504;2023-10-19T15:22:52;16.30;99.90
13436;DHT22;6790;49.520;8.504;2023-10-19T15:25:19;16.40;99.90
13436;DHT22;6790;49.520;8.504;2023-10-19T15:27:47;16.50;99.90
13436;DHT22;6790;49.520;8.504;2023-10-19T15:30:14;16.30;99.90
13436;DHT22;6790;49.520;8.504;2023-10-19T15:32:41;16.50;99.90
13436;DHT22;6790;49.520;8.504;2023-10-19T15:35:08;16.50;99.90
13436;DHT22;6790;49.520;8.504;2023-10-19T15:37:35;16.50;99.90
13436;DHT22;6790;49.520;8.504;2023-10-19T15:40:02;16.30;99.90
13436;DHT22;6790;49.520;8.504;2023-10-19T15:42:29;16.20;99.90
13436;DHT22;6790;49.520;8.504;2023-10-19T15:44:56;16.30;99.90
13436;DHT22;6790;49.520;8.504;2023-10-19T15:47:21;16.30;99.90
13436;DHT22;6790;49.520;8.504;2023-10-19T15:49:50;16.30;99.90
13436;DHT22;6790;49.520;8.504;2023-10-19T15:52:19;16.10;99.90
13436;DHT22;6790;49.520;8.504;2023-10-19T15:54:46;16.20;99.90
13436;DHT22;6790;49.520;8.504;2023-10-19T15:57:12;16.00;99.90
13436;DHT22;6790;49.520;8.504;2023-10-19T15:59:37;16.10;99.90
13436;DHT22;6790;49.520;8.504;2023-10-19T16:02:03;16.00;99.90
13436;DHT22;6790;49.520;8.504;2023-10-19T16:04:29;16.10;99.90
13436;DHT22;6790;49.520;8.504;2023-10-19T16:06:55;16.00;99.90